Terminal Aerodrome Forecast
Issued by NWS

Current Version | Previous Version | Text Only | Print | Product List | Glossary Off
Versions: 1 2 3 4 5 6 7 8 9 10 11 12 13 14 15 16 17 18 19 20 21 22 23

000
FTUS41 KILN 220500
TAFLUK
TAF
KLUK 220524Z 2206/2306 29005KT P6SM OVC025
     FM220800 31004KT P6SM OVC018
     FM221000 VRB03KT 5SM BR OVC011
     FM221500 VRB03KT P6SM OVC015
     FM221800 33005KT P6SM OVC022
     FM230100 04004KT P6SM BKN025=

USA.gov is the U.S. government's official web portal to all federal, state and local government web resources and services.